sensor_id;sensor_type;location;lat;lon;timestamp;noise_LAeq;noise_LA_min;noise_LA_max;noise_LA01;noise_LA95
58303;Laerm;44109;52.398;7.024;2023-04-03T00:01:11;41.51;30.76;62.16;;
58303;Laerm;44109;52.398;7.024;2023-04-03T00:03:38;40.67;30.57;56.57;;
58303;Laerm;44109;52.398;7.024;2023-04-03T00:06:08;40.71;30.99;56.76;;
58303;Laerm;44109;52.398;7.024;2023-04-03T00:08:37;44.05;31.22;56.41;;
58303;Laerm;44109;52.398;7.024;2023-04-03T00:11:05;41.15;31.94;57.16;;
58303;Laerm;44109;52.398;7.024;2023-04-03T00:13:34;40.71;30.79;56.42;;
58303;Laerm;44109;52.398;7.024;2023-04-03T00:16:04;40.61;31.11;56.52;;
58303;Laerm;44109;52.398;7.024;2023-04-03T00:18:31;40.96;31.17;56.86;;
58303;Laerm;44109;52.398;7.024;2023-04-03T00:20:59;40.88;30.99;57.26;;
58303;Laerm;44109;52.398;7.024;2023-04-03T00:23:27;40.64;30.43;56.47;;
58303;Laerm;44109;52.398;7.024;2023-04-03T00:25:54;40.72;30.61;56.38;;
58303;Laerm;44109;52.398;7.024;2023-04-03T00:28:22;41.12;30.64;56.36;;
58303;Laerm;44109;52.398;7.024;2023-04-03T00:30:50;41.23;30.81;57.46;;
58303;Laerm;44109;52.398;7.024;2023-04-03T00:33:19;41.06;31.38;57.34;;
58303;Laerm;44109;52.398;7.024;2023-04-03T00:35:48;42.92;31.34;57.35;;
58303;Laerm;44109;52.398;7.024;2023-04-03T00:38:17;41.43;31.63;57.32;;
58303;Laerm;44109;52.398;7.024;2023-04-03T00:40:48;40.84;30.79;57.16;;
58303;Laerm;44109;52.398;7.024;2023-04-03T00:43:20;40.56;30.33;56.99;;
58303;Laerm;44109;52.398;7.024;2023-04-03T00:45:49;40.60;30.57;56.42;;
58303;Laerm;44109;52.398;7.024;2023-04-03T00:48:23;40.33;31.13;56.84;;
58303;Laerm;44109;52.398;7.024;2023-04-03T00:50:53;40.34;30.73;56.98;;
58303;Laerm;44109;52.398;7.024;2023-04-03T00:53:26;40.21;31.05;57.07;;
58303;Laerm;44109;52.398;7.024;2023-04-03T00:55:56;40.48;30.97;57.37;;
58303;Laerm;44109;52.398;7.024;2023-04-03T00:58:33;40.37;30.86;57.19;;
58303;Laerm;44109;52.398;7.024;2023-04-03T01:01:08;40.25;30.75;56.92;;
58303;Laerm;44109;52.398;7.024;2023-04-03T01:03:39;39.98;30.96;56.03;;
58303;Laerm;44109;52.398;7.024;2023-04-03T01:06:07;40.33;31.33;56.98;;
58303;Laerm;44109;52.398;7.024;2023-04-03T01:08:35;40.06;30.72;56.27;;
58303;Laerm;44109;52.398;7.024;2023-04-03T01:11:03;40.50;30.55;56.21;;
58303;Laerm;44109;52.398;7.024;2023-04-03T01:13:33;40.53;30.74;56.17;;
58303;Laerm;44109;52.398;7.024;2023-04-03T01:16:02;40.29;30.90;56.64;;
58303;Laerm;44109;52.398;7.024;2023-04-03T01:18:32;40.38;31.23;57.05;;
58303;Laerm;44109;52.398;7.024;2023-04-03T01:24:34;39.76;31.40;56.43;;
58303;Laerm;44109;52.398;7.024;2023-04-03T01:27:07;40.46;31.48;56.89;;
58303;Laerm;44109;52.398;7.024;2023-04-03T01:29:37;40.18;30.93;57.07;;
58303;Laerm;44109;52.398;7.024;2023-04-03T01:32:06;40.35;31.22;57.19;;
58303;Laerm;44109;52.398;7.024;2023-04-03T01:34:34;41.19;31.38;57.18;;
58303;Laerm;44109;52.398;7.024;2023-04-03T01:37:02;40.90;31.33;56.18;;
58303;Laerm;44109;52.398;7.024;2023-04-03T01:39:29;40.51;31.51;56.93;;
58303;Laerm;44109;52.398;7.024;2023-04-03T01:41:57;40.66;31.62;56.46;;
58303;Laerm;44109;52.398;7.024;2023-04-03T01:44:25;41.40;31.59;56.86;;
58303;Laerm;44109;52.398;7.024;2023-04-03T01:46:53;40.86;31.64;57.24;;
58303;Laerm;44109;52.398;7.024;2023-04-03T01:49:22;40.87;31.60;56.86;;
58303;Laerm;44109;52.398;7.024;2023-04-03T01:51:49;41.14;31.36;56.29;;
58303;Laerm;44109;52.398;7.024;2023-04-03T01:54:17;40.57;30.92;56.24;;
58303;Laerm;44109;52.398;7.024;2023-04-03T01:56:44;40.09;30.69;56.04;;
58303;Laerm;44109;52.398;7.024;2023-04-03T01:59:12;40.42;31.10;56.71;;
58303;Laerm;44109;52.398;7.024;2023-04-03T02:01:39;40.03;31.79;56.39;;
58303;Laerm;44109;52.398;7.024;2023-04-03T02:04:07;41.35;31.80;61.11;;
58303;Laerm;44109;52.398;7.024;2023-04-03T02:06:36;40.59;31.38;60.57;;
58303;Laerm;44109;52.398;7.024;2023-04-03T02:09:04;40.75;32.10;56.57;;
58303;Laerm;44109;52.398;7.024;2023-04-03T02:11:32;41.00;32.14;56.82;;
58303;Laerm;44109;52.398;7.024;2023-04-03T02:13:59;40.09;31.89;56.43;;
58303;Laerm;44109;52.398;7.024;2023-04-03T02:16:27;40.32;31.95;56.70;;
58303;Laerm;44109;52.398;7.024;2023-04-03T02:18:54;41.50;31.68;57.57;;
58303;Laerm;44109;52.398;7.024;2023-04-03T02:21:22;40.00;31.32;56.45;;
58303;Laerm;44109;52.398;7.024;2023-04-03T02:23:51;39.78;31.20;56.39;;
58303;Laerm;44109;52.398;7.024;2023-04-03T02:26:19;39.87;31.12;57.59;;
58303;Laerm;44109;52.398;7.024;2023-04-03T02:28:47;39.73;31.22;56.83;;
58303;Laerm;44109;52.398;7.024;2023-04-03T02:31:15;39.94;31.24;56.48;;
58303;Laerm;44109;52.398;7.024;2023-04-03T02:33:43;40.01;31.59;56.96;;
58303;Laerm;44109;52.398;7.024;2023-04-03T02:36:10;41.51;32.27;56.81;;
58303;Laerm;44109;52.398;7.024;2023-04-03T02:38:38;41.83;32.11;57.78;;
58303;Laerm;44109;52.398;7.024;2023-04-03T02:41:11;42.03;32.02;57.40;;
58303;Laerm;44109;52.398;7.024;2023-04-03T02:43:39;40.17;31.58;57.25;;
58303;Laerm;44109;52.398;7.024;2023-04-03T02:46:07;39.91;31.93;57.42;;
58303;Laerm;44109;52.398;7.024;2023-04-03T02:48:34;40.25;32.15;56.67;;
58303;Laerm;44109;52.398;7.024;2023-04-03T02:51:02;40.86;31.63;57.08;;
58303;Laerm;44109;52.398;7.024;2023-04-03T02:53:30;41.08;32.14;57.62;;
58303;Laerm;44109;52.398;7.024;2023-04-03T02:55:58;40.08;31.81;56.72;;
58303;Laerm;44109;52.398;7.024;2023-04-03T02:58:27;41.48;31.82;56.81;;
58303;Laerm;44109;52.398;7.024;2023-04-03T03:00:54;40.71;31.71;57.01;;
58303;Laerm;44109;52.398;7.024;2023-04-03T03:03:22;40.67;32.23;57.72;;
58303;Laerm;44109;52.398;7.024;2023-04-03T03:05:49;41.18;32.60;56.80;;
58303;Laerm;44109;52.398;7.024;2023-04-03T03:08:17;42.93;33.03;56.94;;
58303;Laerm;44109;52.398;7.024;2023-04-03T03:10:46;44.80;33.78;57.07;;
58303;Laerm;44109;52.398;7.024;2023-04-03T03:13:13;41.63;34.02;56.62;;
58303;Laerm;44109;52.398;7.024;2023-04-03T03:15:43;41.22;33.41;57.28;;
58303;Laerm;44109;52.398;7.024;2023-04-03T03:18:10;41.92;33.24;57.02;;
58303;Laerm;44109;52.398;7.024;2023-04-03T03:20:38;42.86;33.82;56.65;;
58303;Laerm;44109;52.398;7.024;2023-04-03T03:23:05;42.72;33.91;56.73;;
58303;Laerm;44109;52.398;7.024;2023-04-03T03:25:33;40.95;33.36;56.98;;
58303;Laerm;44109;52.398;7.024;2023-04-03T03:28:00;41.14;34.13;57.01;;
58303;Laerm;44109;52.398;7.024;2023-04-03T03:30:28;45.69;35.66;58.66;;
58303;Laerm;44109;52.398;7.024;2023-04-03T03:32:57;41.50;34.07;57.00;;
58303;Laerm;44109;52.398;7.024;2023-04-03T03:35:24;40.46;33.70;56.62;;
58303;Laerm;44109;52.398;7.024;2023-04-03T03:37:52;40.72;33.45;57.43;;
58303;Laerm;44109;52.398;7.024;2023-04-03T03:40:19;41.44;33.74;56.82;;
58303;Laerm;44109;52.398;7.024;2023-04-03T03:42:47;45.39;33.88;60.18;;
58303;Laerm;44109;52.398;7.024;2023-04-03T03:45:14;43.83;35.42;57.48;;
58303;Laerm;44109;52.398;7.024;2023-04-03T03:47:42;42.80;33.56;56.63;;
58303;Laerm;44109;52.398;7.024;2023-04-03T03:50:11;42.11;34.30;56.54;;
58303;Laerm;44109;52.398;7.024;2023-04-03T03:52:39;41.36;33.96;56.73;;
58303;Laerm;44109;52.398;7.024;2023-04-03T03:55:07;40.75;32.67;56.53;;
58303;Laerm;44109;52.398;7.024;2023-04-03T03:57:35;40.63;33.55;57.21;;
58303;Laerm;44109;52.398;7.024;2023-04-03T04:00:04;41.08;32.54;56.75;;
58303;Laerm;44109;52.398;7.024;2023-04-03T04:02:33;47.06;34.04;65.24;;
58303;Laerm;44109;52.398;7.024;2023-04-03T04:05:00;53.42;34.14;71.50;;
58303;Laerm;44109;52.398;7.024;2023-04-03T04:07:30;55.25;36.55;73.43;;
58303;Laerm;44109;52.398;7.024;2023-04-03T04:09:58;55.48;35.54;72.51;;
58303;Laerm;44109;52.398;7.024;2023-04-03T04:12:25;57.26;36.38;77.81;;
58303;Laerm;44109;52.398;7.024;2023-04-03T04:14:53;54.11;37.25;68.06;;
58303;Laerm;44109;52.398;7.024;2023-04-03T04:17:21;54.85;37.21;70.07;;
58303;Laerm;44109;52.398;7.024;2023-04-03T04:19:49;57.99;37.55;73.11;;
58303;Laerm;44109;52.398;7.024;2023-04-03T04:22:16;58.25;38.27;73.60;;
58303;Laerm;44109;52.398;7.024;2023-04-03T04:24:45;57.71;37.81;73.49;;
58303;Laerm;44109;52.398;7.024;2023-04-03T04:27:13;55.88;38.46;72.43;;
58303;Laerm;44109;52.398;7.024;2023-04-03T04:29:41;52.09;37.02;72.22;;
58303;Laerm;44109;52.398;7.024;2023-04-03T04:32:09;48.84;36.29;62.91;;
58303;Laerm;44109;52.398;7.024;2023-04-03T04:34:37;48.43;36.40;62.92;;
58303;Laerm;44109;52.398;7.024;2023-04-03T04:37:04;49.62;37.52;62.56;;
58303;Laerm;44109;52.398;7.024;2023-04-03T04:39:34;50.94;37.31;67.14;;
58303;Laerm;44109;52.398;7.024;2023-04-03T04:42:03;52.57;37.37;66.50;;
58303;Laerm;44109;52.398;7.024;2023-04-03T04:44:31;51.00;36.00;67.86;;
58303;Laerm;44109;52.398;7.024;2023-04-03T04:46:59;49.76;37.12;64.95;;
58303;Laerm;44109;52.398;7.024;2023-04-03T04:49:26;50.05;38.23;64.54;;
58303;Laerm;44109;52.398;7.024;2023-04-03T04:51:54;50.48;38.40;65.11;;
58303;Laerm;44109;52.398;7.024;2023-04-03T04:54:22;50.19;37.97;63.19;;
58303;Laerm;44109;52.398;7.024;2023-04-03T04:56:49;48.90;38.45;72.91;;
58303;Laerm;44109;52.398;7.024;2023-04-03T04:59:18;47.61;38.18;66.31;;
58303;Laerm;44109;52.398;7.024;2023-04-03T05:01:46;46.79;37.60;58.86;;
58303;Laerm;44109;52.398;7.024;2023-04-03T05:04:13;50.46;39.26;68.97;;
58303;Laerm;44109;52.398;7.024;2023-04-03T05:06:41;50.22;38.66;69.04;;
58303;Laerm;44109;52.398;7.024;2023-04-03T05:09:09;48.81;39.11;65.63;;
58303;Laerm;44109;52.398;7.024;2023-04-03T05:11:37;46.20;38.54;58.60;;
58303;Laerm;44109;52.398;7.024;2023-04-03T05:14:04;48.48;39.74;74.60;;
58303;Laerm;44109;52.398;7.024;2023-04-03T05:16:34;48.56;38.50;70.50;;
58303;Laerm;44109;52.398;7.024;2023-04-03T05:19:02;47.81;40.97;69.77;;
58303;Laerm;44109;52.398;7.024;2023-04-03T05:21:30;50.39;38.46;72.66;;
58303;Laerm;44109;52.398;7.024;2023-04-03T05:23:59;50.12;39.77;68.74;;
58303;Laerm;44109;52.398;7.024;2023-04-03T05:26:29;48.93;39.85;69.87;;
58303;Laerm;44109;52.398;7.024;2023-04-03T05:28:57;50.89;38.33;65.30;;
58303;Laerm;44109;52.398;7.024;2023-04-03T05:31:25;51.04;40.57;76.45;;
58303;Laerm;44109;52.398;7.024;2023-04-03T05:33:57;52.75;40.12;73.38;;
58303;Laerm;44109;52.398;7.024;2023-04-03T05:36:25;54.95;40.01;71.37;;
58303;Laerm;44109;52.398;7.024;2023-04-03T05:38:53;50.28;39.05;68.53;;
58303;Laerm;44109;52.398;7.024;2023-04-03T05:41:22;46.40;40.17;65.79;;
58303;Laerm;44109;52.398;7.024;2023-04-03T05:43:50;46.55;38.09;66.06;;
58303;Laerm;44109;52.398;7.024;2023-04-03T05:46:19;49.90;39.41;71.13;;
58303;Laerm;44109;52.398;7.024;2023-04-03T05:48:48;47.11;40.41;70.55;;
58303;Laerm;44109;52.398;7.024;2023-04-03T05:51:19;46.54;39.18;59.15;;
58303;Laerm;44109;52.398;7.024;2023-04-03T05:53:56;48.27;40.15;64.67;;
58303;Laerm;44109;52.398;7.024;2023-04-03T05:56:27;48.95;39.30;65.26;;
58303;Laerm;44109;52.398;7.024;2023-04-03T05:58:54;49.43;38.15;66.81;;
58303;Laerm;44109;52.398;7.024;2023-04-03T06:01:22;58.10;40.67;81.98;;
58303;Laerm;44109;52.398;7.024;2023-04-03T06:03:52;46.71;39.26;58.26;;
58303;Laerm;44109;52.398;7.024;2023-04-03T06:06:21;46.73;38.43;62.65;;
58303;Laerm;44109;52.398;7.024;2023-04-03T06:08:49;46.53;38.84;61.14;;
58303;Laerm;44109;52.398;7.024;2023-04-03T06:11:16;51.20;40.12;68.43;;
58303;Laerm;44109;52.398;7.024;2023-04-03T06:13:44;51.68;41.49;74.54;;
58303;Laerm;44109;52.398;7.024;2023-04-03T06:16:18;56.65;40.84;78.10;;
58303;Laerm;44109;52.398;7.024;2023-04-03T06:18:46;51.83;39.90;68.24;;
58303;Laerm;44109;52.398;7.024;2023-04-03T06:21:14;53.35;41.28;72.90;;
58303;Laerm;44109;52.398;7.024;2023-04-03T06:23:43;52.10;41.72;72.32;;
58303;Laerm;44109;52.398;7.024;2023-04-03T06:26:10;50.33;40.46;63.75;;
58303;Laerm;44109;52.398;7.024;2023-04-03T06:28:38;50.15;41.19;74.88;;
58303;Laerm;44109;52.398;7.024;2023-04-03T06:31:06;48.68;39.80;67.11;;
58303;Laerm;44109;52.398;7.024;2023-04-03T06:33:33;48.24;39.67;65.37;;
58303;Laerm;44109;52.398;7.024;2023-04-03T06:36:05;53.05;43.16;77.22;;
58303;Laerm;44109;52.398;7.024;2023-04-03T06:38:33;49.99;41.37;69.66;;
58303;Laerm;44109;52.398;7.024;2023-04-03T06:41:02;52.82;40.71;71.20;;
58303;Laerm;44109;52.398;7.024;2023-04-03T06:43:30;50.89;41.08;67.12;;
58303;Laerm;44109;52.398;7.024;2023-04-03T06:45:58;50.59;41.67;66.70;;
58303;Laerm;44109;52.398;7.024;2023-04-03T06:48:26;51.46;40.41;66.46;;
58303;Laerm;44109;52.398;7.024;2023-04-03T06:50:53;51.44;42.77;67.54;;
58303;Laerm;44109;52.398;7.024;2023-04-03T06:53:21;50.63;42.23;62.83;;
58303;Laerm;44109;52.398;7.024;2023-04-03T06:55:49;49.56;41.28;62.91;;
58303;Laerm;44109;52.398;7.024;2023-04-03T06:58:18;48.83;38.66;64.60;;
58303;Laerm;44109;52.398;7.024;2023-04-03T07:00:45;51.28;41.23;66.32;;
58303;Laerm;44109;52.398;7.024;2023-04-03T07:03:13;49.36;39.88;65.28;;
58303;Laerm;44109;52.398;7.024;2023-04-03T07:05:42;52.13;39.24;74.37;;
58303;Laerm;44109;52.398;7.024;2023-04-03T07:08:10;48.78;39.13;65.49;;
58303;Laerm;44109;52.398;7.024;2023-04-03T07:10:38;48.58;38.75;61.80;;
58303;Laerm;44109;52.398;7.024;2023-04-03T07:13:06;48.29;36.64;63.63;;
58303;Laerm;44109;52.398;7.024;2023-04-03T07:15:35;48.97;37.60;62.20;;
58303;Laerm;44109;52.398;7.024;2023-04-03T07:18:03;49.13;38.04;64.87;;
58303;Laerm;44109;52.398;7.024;2023-04-03T07:20:32;49.70;38.83;68.49;;
58303;Laerm;44109;52.398;7.024;2023-04-03T07:22:59;49.63;38.57;63.38;;
58303;Laerm;44109;52.398;7.024;2023-04-03T07:25:28;49.58;38.86;62.02;;
58303;Laerm;44109;52.398;7.024;2023-04-03T07:27:56;52.10;39.49;66.43;;
58303;Laerm;44109;52.398;7.024;2023-04-03T07:30:23;50.44;37.64;66.27;;
58303;Laerm;44109;52.398;7.024;2023-04-03T07:32:53;53.67;38.48;77.65;;
58303;Laerm;44109;52.398;7.024;2023-04-03T07:35:21;49.87;38.36;66.20;;
58303;Laerm;44109;52.398;7.024;2023-04-03T07:37:49;52.01;42.45;66.51;;
58303;Laerm;44109;52.398;7.024;2023-04-03T07:40:17;52.69;38.81;72.29;;
58303;Laerm;44109;52.398;7.024;2023-04-03T07:42:44;51.11;38.67;62.15;;
58303;Laerm;44109;52.398;7.024;2023-04-03T07:45:12;50.89;38.93;69.07;;
58303;Laerm;44109;52.398;7.024;2023-04-03T07:47:39;52.29;38.25;69.74;;
58303;Laerm;44109;52.398;7.024;2023-04-03T07:50:09;56.18;38.46;83.19;;
58303;Laerm;44109;52.398;7.024;2023-04-03T07:52:37;50.27;39.01;66.41;;
58303;Laerm;44109;52.398;7.024;2023-04-03T07:55:05;50.42;40.33;71.00;;
58303;Laerm;44109;52.398;7.024;2023-04-03T07:57:33;50.42;39.79;70.64;;
58303;Laerm;44109;52.398;7.024;2023-04-03T08:00:01;50.82;41.46;72.01;;
58303;Laerm;44109;52.398;7.024;2023-04-03T08:02:29;49.16;38.32;58.37;;
58303;Laerm;44109;52.398;7.024;2023-04-03T08:04:58;56.58;38.16;73.95;;
58303;Laerm;44109;52.398;7.024;2023-04-03T08:07:27;49.08;37.42;61.12;;
58303;Laerm;44109;52.398;7.024;2023-04-03T08:09:55;50.41;38.89;63.82;;
58303;Laerm;44109;52.398;7.024;2023-04-03T08:12:23;50.59;40.40;67.91;;
58303;Laerm;44109;52.398;7.024;2023-04-03T08:14:51;49.98;39.48;70.91;;
58303;Laerm;44109;52.398;7.024;2023-04-03T08:17:18;52.61;39.92;71.84;;
58303;Laerm;44109;52.398;7.024;2023-04-03T08:19:46;51.34;40.75;65.54;;
58303;Laerm;44109;52.398;7.024;2023-04-03T08:22:13;55.08;43.21;75.88;;
58303;Laerm;44109;52.398;7.024;2023-04-03T08:24:43;53.49;41.66;75.95;;
58303;Laerm;44109;52.398;7.024;2023-04-03T08:27:11;50.93;39.52;65.61;;
58303;Laerm;44109;52.398;7.024;2023-04-03T08:29:38;52.23;40.96;70.20;;
58303;Laerm;44109;52.398;7.024;2023-04-03T08:32:07;50.63;39.29;64.42;;
58303;Laerm;44109;52.398;7.024;2023-04-03T08:34:34;53.23;42.51;73.32;;
58303;Laerm;44109;52.398;7.024;2023-04-03T08:37:03;50.54;41.36;61.01;;
58303;Laerm;44109;52.398;7.024;2023-04-03T08:39:30;51.39;41.98;72.95;;
58303;Laerm;44109;52.398;7.024;2023-04-03T08:42:05;51.14;38.66;67.89;;
58303;Laerm;44109;52.398;7.024;2023-04-03T08:44:45;50.49;39.12;63.95;;
58303;Laerm;44109;52.398;7.024;2023-04-03T08:47:23;54.13;41.09;76.12;;
58303;Laerm;44109;52.398;7.024;2023-04-03T08:49:56;51.58;41.36;68.52;;
58303;Laerm;44109;52.398;7.024;2023-04-03T08:52:34;54.03;39.49;76.21;;
58303;Laerm;44109;52.398;7.024;2023-04-03T08:55:07;54.45;41.02;70.55;;
58303;Laerm;44109;52.398;7.024;2023-04-03T08:57:45;53.57;41.06;67.19;;
58303;Laerm;44109;52.398;7.024;2023-04-03T09:00:20;56.21;40.62;73.35;;
58303;Laerm;44109;52.398;7.024;2023-04-03T09:02:49;52.26;43.06;65.27;;
58303;Laerm;44109;52.398;7.024;2023-04-03T09:05:20;52.55;40.85;75.33;;
58303;Laerm;44109;52.398;7.024;2023-04-03T09:08:00;52.29;41.45;66.93;;
58303;Laerm;44109;52.398;7.024;2023-04-03T09:10:34;53.05;41.32;68.62;;
58303;Laerm;44109;52.398;7.024;2023-04-03T09:13:13;52.02;41.80;67.90;;
58303;Laerm;44109;52.398;7.024;2023-04-03T09:15:40;51.82;40.92;70.41;;
58303;Laerm;44109;52.398;7.024;2023-04-03T09:18:16;54.17;39.96;70.12;;
58303;Laerm;44109;52.398;7.024;2023-04-03T09:20:55;51.72;39.97;73.91;;
58303;Laerm;44109;52.398;7.024;2023-04-03T09:23:30;53.40;41.81;73.32;;
58303;Laerm;44109;52.398;7.024;2023-04-03T09:26:04;51.37;41.34;70.64;;
58303;Laerm;44109;52.398;7.024;2023-04-03T09:28:38;57.77;39.32;78.70;;
58303;Laerm;44109;52.398;7.024;2023-04-03T09:31:19;52.90;41.75;68.38;;
58303;Laerm;44109;52.398;7.024;2023-04-03T09:33:50;52.83;41.36;71.20;;
58303;Laerm;44109;52.398;7.024;2023-04-03T09:36:45;51.00;36.91;67.66;;
58303;Laerm;44109;52.398;7.024;2023-04-03T09:39:16;52.32;40.32;68.82;;
58303;Laerm;44109;52.398;7.024;2023-04-03T09:41:58;51.26;37.92;69.81;;
58303;Laerm;44109;52.398;7.024;2023-04-03T09:44:31;50.29;38.79;66.95;;
58303;Laerm;44109;52.398;7.024;2023-04-03T09:46:59;50.24;40.42;62.67;;
58303;Laerm;44109;52.398;7.024;2023-04-03T09:49:44;50.27;39.55;65.68;;
58303;Laerm;44109;52.398;7.024;2023-04-03T09:52:22;51.66;40.51;71.31;;
58303;Laerm;44109;52.398;7.024;2023-04-03T09:54:50;50.27;39.37;63.94;;
58303;Laerm;44109;52.398;7.024;2023-04-03T09:57:18;51.13;38.54;65.80;;
58303;Laerm;44109;52.398;7.024;2023-04-03T09:59:57;59.78;40.55;76.76;;
58303;Laerm;44109;52.398;7.024;2023-04-03T10:02:36;64.37;40.30;80.55;;
58303;Laerm;44109;52.398;7.024;2023-04-03T10:05:32;54.32;39.19;73.19;;
58303;Laerm;44109;52.398;7.024;2023-04-03T10:08:20;49.00;39.39;64.24;;
58303;Laerm;44109;52.398;7.024;2023-04-03T10:11:09;48.69;37.70;64.32;;
58303;Laerm;44109;52.398;7.024;2023-04-03T10:13:51;50.56;39.34;70.58;;
58303;Laerm;44109;52.398;7.024;2023-04-03T10:16:26;51.32;41.01;68.19;;
58303;Laerm;44109;52.398;7.024;2023-04-03T10:19:14;50.56;38.78;69.20;;
58303;Laerm;44109;52.398;7.024;2023-04-03T10:21:48;52.35;39.15;71.84;;
58303;Laerm;44109;52.398;7.024;2023-04-03T10:24:24;52.55;39.03;69.08;;
58303;Laerm;44109;52.398;7.024;2023-04-03T10:27:00;50.12;39.86;63.01;;
58303;Laerm;44109;52.398;7.024;2023-04-03T10:29:41;52.93;41.05;72.92;;
58303;Laerm;44109;52.398;7.024;2023-04-03T10:32:42;52.93;39.75;77.43;;
58303;Laerm;44109;52.398;7.024;2023-04-03T10:35:23;53.67;38.91;77.51;;
58303;Laerm;44109;52.398;7.024;2023-04-03T10:38:07;56.97;40.88;83.49;;
58303;Laerm;44109;52.398;7.024;2023-04-03T10:40:49;52.69;37.45;71.33;;
58303;Laerm;44109;52.398;7.024;2023-04-03T10:43:33;48.63;37.54;64.48;;
58303;Laerm;44109;52.398;7.024;2023-04-03T10:46:09;53.31;38.97;72.23;;
58303;Laerm;44109;52.398;7.024;2023-04-03T10:49:11;50.00;39.17;68.40;;
58303;Laerm;44109;52.398;7.024;2023-04-03T10:51:48;51.08;41.52;64.34;;
58303;Laerm;44109;52.398;7.024;2023-04-03T10:54:25;50.86;38.46;67.18;;
58303;Laerm;44109;52.398;7.024;2023-04-03T10:56:58;54.23;43.35;70.16;;
58303;Laerm;44109;52.398;7.024;2023-04-03T10:59:33;51.85;39.39;75.18;;
58303;Laerm;44109;52.398;7.024;2023-04-03T11:02:07;52.89;39.21;72.88;;
58303;Laerm;44109;52.398;7.024;2023-04-03T11:04:42;51.91;41.37;72.16;;
58303;Laerm;44109;52.398;7.024;2023-04-03T11:07:17;50.20;40.71;73.84;;
58303;Laerm;44109;52.398;7.024;2023-04-03T11:09:48;50.51;38.68;65.64;;
58303;Laerm;44109;52.398;7.024;2023-04-03T11:12:23;50.17;38.89;71.27;;
58303;Laerm;44109;52.398;7.024;2023-04-03T11:14:55;51.92;41.57;72.45;;
58303;Laerm;44109;52.398;7.024;2023-04-03T11:17:33;54.63;39.60;76.47;;
58303;Laerm;44109;52.398;7.024;2023-04-03T11:20:15;49.16;39.08;67.39;;
58303;Laerm;44109;52.398;7.024;2023-04-03T11:22:52;53.28;43.18;71.82;;
58303;Laerm;44109;52.398;7.024;2023-04-03T11:25:24;58.48;42.67;87.51;;
58303;Laerm;44109;52.398;7.024;2023-04-03T11:27:57;57.74;44.14;81.25;;
58303;Laerm;44109;52.398;7.024;2023-04-03T11:30:34;51.89;39.40;70.37;;
58303;Laerm;44109;52.398;7.024;2023-04-03T11:33:27;53.06;40.78;68.90;;
58303;Laerm;44109;52.398;7.024;2023-04-03T11:36:02;55.70;45.15;76.34;;
58303;Laerm;44109;52.398;7.024;2023-04-03T11:38:36;53.89;42.95;74.13;;
58303;Laerm;44109;52.398;7.024;2023-04-03T11:41:09;55.27;43.43;73.06;;
58303;Laerm;44109;52.398;7.024;2023-04-03T11:43:42;52.27;42.16;70.23;;
58303;Laerm;44109;52.398;7.024;2023-04-03T11:46:10;54.19;40.50;78.68;;
58303;Laerm;44109;52.398;7.024;2023-04-03T11:48:51;49.76;40.48;66.65;;
58303;Laerm;44109;52.398;7.024;2023-04-03T11:51:43;50.32;41.11;62.11;;
58303;Laerm;44109;52.398;7.024;2023-04-03T11:54:50;52.20;41.50;71.59;;
58303;Laerm;44109;52.398;7.024;2023-04-03T11:58:02;50.86;41.46;65.89;;
58303;Laerm;44109;52.398;7.024;2023-04-03T12:01:08;53.52;42.32;76.25;;
58303;Laerm;44109;52.398;7.024;2023-04-03T12:04:08;51.08;40.98;70.34;;
58303;Laerm;44109;52.398;7.024;2023-04-03T12:07:14;51.68;41.21;73.54;;
58303;Laerm;44109;52.398;7.024;2023-04-03T12:10:13;52.10;41.32;74.62;;
58303;Laerm;44109;52.398;7.024;2023-04-03T12:12:42;50.26;41.04;67.18;;
58303;Laerm;44109;52.398;7.024;2023-04-03T12:15:47;52.09;41.02;75.51;;
58303;Laerm;44109;52.398;7.024;2023-04-03T12:18:58;52.93;39.50;70.18;;
58303;Laerm;44109;52.398;7.024;2023-04-03T12:22:11;52.32;39.27;70.41;;
58303;Laerm;44109;52.398;7.024;2023-04-03T12:24:41;53.05;40.01;71.32;;
58303;Laerm;44109;52.398;7.024;2023-04-03T12:27:23;57.13;42.67;81.95;;
58303;Laerm;44109;52.398;7.024;2023-04-03T12:30:00;56.10;42.49;73.73;;
58303;Laerm;44109;52.398;7.024;2023-04-03T12:33:10;56.62;40.77;79.01;;
58303;Laerm;44109;52.398;7.024;2023-04-03T12:35:55;52.90;42.34;73.79;;
58303;Laerm;44109;52.398;7.024;2023-04-03T12:38:56;55.27;44.06;76.73;;
58303;Laerm;44109;52.398;7.024;2023-04-03T12:41:37;51.35;40.62;64.92;;
58303;Laerm;44109;52.398;7.024;2023-04-03T12:44:31;54.14;42.11;75.22;;
58303;Laerm;44109;52.398;7.024;2023-04-03T12:47:27;57.04;41.60;77.65;;
58303;Laerm;44109;52.398;7.024;2023-04-03T12:49:57;54.60;41.08;72.23;;
58303;Laerm;44109;52.398;7.024;2023-04-03T12:52:35;51.43;42.59;70.29;;
58303;Laerm;44109;52.398;7.024;2023-04-03T12:55:15;52.79;41.87;73.59;;
58303;Laerm;44109;52.398;7.024;2023-04-03T12:57:43;51.75;42.26;67.60;;
58303;Laerm;44109;52.398;7.024;2023-04-03T13:00:30;56.27;44.10;80.94;;
58303;Laerm;44109;52.398;7.024;2023-04-03T13:02:59;50.02;40.83;69.01;;
58303;Laerm;44109;52.398;7.024;2023-04-03T13:05:28;51.23;41.44;68.64;;
58303;Laerm;44109;52.398;7.024;2023-04-03T13:08:02;55.61;42.38;74.27;;
58303;Laerm;44109;52.398;7.024;2023-04-03T13:10:49;56.24;42.76;76.49;;
58303;Laerm;44109;52.398;7.024;2023-04-03T13:13:18;54.71;41.35;75.12;;
58303;Laerm;44109;52.398;7.024;2023-04-03T13:15:48;51.27;40.40;72.07;;
58303;Laerm;44109;52.398;7.024;2023-04-03T13:18:29;51.51;38.58;72.95;;
58303;Laerm;44109;52.398;7.024;2023-04-03T13:21:06;50.50;38.67;72.18;;
58303;Laerm;44109;52.398;7.024;2023-04-03T13:23:39;53.85;40.11;75.16;;
58303;Laerm;44109;52.398;7.024;2023-04-03T13:26:10;52.64;40.55;70.64;;
58303;Laerm;44109;52.398;7.024;2023-04-03T13:28:39;49.95;40.37;65.09;;
58303;Laerm;44109;52.398;7.024;2023-04-03T13:31:20;52.91;41.60;72.45;;
58303;Laerm;44109;52.398;7.024;2023-04-03T13:33:58;53.81;42.15;74.38;;
58303;Laerm;44109;52.398;7.024;2023-04-03T13:36:32;53.27;39.76;74.19;;
58303;Laerm;44109;52.398;7.024;2023-04-03T13:39:06;50.21;38.66;66.08;;
58303;Laerm;44109;52.398;7.024;2023-04-03T13:41:38;50.03;41.03;69.47;;
58303;Laerm;44109;52.398;7.024;2023-04-03T13:44:30;50.48;38.62;68.22;;
58303;Laerm;44109;52.398;7.024;2023-04-03T13:47:14;57.50;40.47;79.07;;
58303;Laerm;44109;52.398;7.024;2023-04-03T13:49:45;57.40;39.74;80.91;;
58303;Laerm;44109;52.398;7.024;2023-04-03T13:52:27;52.48;39.15;70.20;;
58303;Laerm;44109;52.398;7.024;2023-04-03T13:54:59;49.91;37.09;63.14;;
58303;Laerm;44109;52.398;7.024;2023-04-03T13:57:29;57.68;37.93;78.63;;
58303;Laerm;44109;52.398;7.024;2023-04-03T13:59:56;57.84;39.31;76.82;;
58303;Laerm;44109;52.398;7.024;2023-04-03T14:02:32;55.54;40.55;74.67;;
58303;Laerm;44109;52.398;7.024;2023-04-03T14:05:03;52.90;40.37;71.32;;
58303;Laerm;44109;52.398;7.024;2023-04-03T14:07:34;52.15;37.83;70.76;;
58303;Laerm;44109;52.398;7.024;2023-04-03T14:10:02;50.45;39.96;67.84;;
58303;Laerm;44109;52.398;7.024;2023-04-03T14:12:35;50.09;38.83;61.60;;
58303;Laerm;44109;52.398;7.024;2023-04-03T14:15:18;50.16;39.03;69.51;;
58303;Laerm;44109;52.398;7.024;2023-04-03T14:17:46;50.60;39.52;65.54;;